sensor_id;sensor_type;location;lat;lon;timestamp;P1;durP1;ratioP1;P2;durP2;ratioP2
5418;SDS011;2732;52.092;11.556;2022-11-15T00:00:59;27.27;;;16.00;;
5418;SDS011;2732;52.092;11.556;2022-11-15T00:06:03;42.63;;;19.07;;
5418;SDS011;2732;52.092;11.556;2022-11-15T00:11:04;32.73;;;17.60;;
5418;SDS011;2732;52.092;11.556;2022-11-15T00:16:05;28.27;;;15.37;;
5418;SDS011;2732;52.092;11.556;2022-11-15T00:21:07;30.00;;;16.37;;
5418;SDS011;2732;52.092;11.556;2022-11-15T00:26:13;24.70;;;15.40;;
5418;SDS011;2732;52.092;11.556;2022-11-15T00:31:14;30.23;;;15.80;;
5418;SDS011;2732;52.092;11.556;2022-11-15T00:36:15;27.40;;;17.10;;
5418;SDS011;2732;52.092;11.556;2022-11-15T00:41:16;25.67;;;15.47;;
5418;SDS011;2732;52.092;11.556;2022-11-15T00:46:16;25.73;;;15.37;;
5418;SDS011;2732;52.092;11.556;2022-11-15T00:51:17;23.73;;;14.27;;
5418;SDS011;2732;52.092;11.556;2022-11-15T00:56:18;26.50;;;15.00;;
5418;SDS011;2732;52.092;11.556;2022-11-15T01:01:19;24.67;;;12.33;;
5418;SDS011;2732;52.092;11.556;2022-11-15T01:06:21;24.93;;;14.00;;
5418;SDS011;2732;52.092;11.556;2022-11-15T01:11:22;25.70;;;15.20;;
5418;SDS011;2732;52.092;11.556;2022-11-15T01:16:22;23.20;;;13.70;;
5418;SDS011;2732;52.092;11.556;2022-11-15T01:21:23;27.47;;;15.70;;
5418;SDS011;2732;52.092;11.556;2022-11-15T01:26:24;26.27;;;15.53;;
5418;SDS011;2732;52.092;11.556;2022-11-15T01:31:25;26.70;;;14.90;;
5418;SDS011;2732;52.092;11.556;2022-11-15T01:36:25;23.17;;;13.90;;
5418;SDS011;2732;52.092;11.556;2022-11-15T01:41:31;27.23;;;16.07;;
5418;SDS011;2732;52.092;11.556;2022-11-15T01:46:33;23.90;;;14.03;;
5418;SDS011;2732;52.092;11.556;2022-11-15T01:51:35;29.63;;;16.50;;
5418;SDS011;2732;52.092;11.556;2022-11-15T01:56:38;26.03;;;14.80;;
5418;SDS011;2732;52.092;11.556;2022-11-15T02:01:46;26.10;;;13.90;;
5418;SDS011;2732;52.092;11.556;2022-11-15T02:06:47;23.87;;;13.80;;
5418;SDS011;2732;52.092;11.556;2022-11-15T02:11:48;34.93;;;16.70;;
5418;SDS011;2732;52.092;11.556;2022-11-15T02:16:54;31.83;;;16.27;;
5418;SDS011;2732;52.092;11.556;2022-11-15T02:22:21;26.37;;;15.03;;
5418;SDS011;2732;52.092;11.556;2022-11-15T02:28:25;26.10;;;15.00;;
5418;SDS011;2732;52.092;11.556;2022-11-15T02:33:38;26.67;;;15.70;;
5418;SDS011;2732;52.092;11.556;2022-11-15T02:38:47;26.57;;;15.63;;
5418;SDS011;2732;52.092;11.556;2022-11-15T02:49:28;23.93;;;14.10;;
5418;SDS011;2732;52.092;11.556;2022-11-15T02:54:32;24.70;;;14.17;;
5418;SDS011;2732;52.092;11.556;2022-11-15T03:05:19;24.83;;;13.53;;
5418;SDS011;2732;52.092;11.556;2022-11-15T03:21:59;27.13;;;14.60;;
5418;SDS011;2732;52.092;11.556;2022-11-15T03:27:05;22.80;;;14.27;;
5418;SDS011;2732;52.092;11.556;2022-11-15T03:32:10;25.37;;;15.13;;
5418;SDS011;2732;52.092;11.556;2022-11-15T03:48:46;23.80;;;14.37;;
5418;SDS011;2732;52.092;11.556;2022-11-15T03:53:52;22.23;;;13.93;;
5418;SDS011;2732;52.092;11.556;2022-11-15T03:58:53;26.77;;;14.00;;
5418;SDS011;2732;52.092;11.556;2022-11-15T04:03:53;21.53;;;12.43;;
5418;SDS011;2732;52.092;11.556;2022-11-15T04:08:54;27.17;;;13.50;;
5418;SDS011;2732;52.092;11.556;2022-11-15T04:13:55;22.33;;;14.13;;
5418;SDS011;2732;52.092;11.556;2022-11-15T04:18:55;19.53;;;11.90;;
5418;SDS011;2732;52.092;11.556;2022-11-15T04:24:15;26.60;;;12.70;;
5418;SDS011;2732;52.092;11.556;2022-11-15T04:29:15;21.03;;;13.13;;
5418;SDS011;2732;52.092;11.556;2022-11-15T04:34:34;27.23;;;13.60;;
5418;SDS011;2732;52.092;11.556;2022-11-15T04:39:35;23.83;;;13.47;;
5418;SDS011;2732;52.092;11.556;2022-11-15T04:44:35;20.83;;;12.63;;
5418;SDS011;2732;52.092;11.556;2022-11-15T04:49:36;26.23;;;16.27;;
5418;SDS011;2732;52.092;11.556;2022-11-15T04:54:37;23.60;;;12.60;;
5418;SDS011;2732;52.092;11.556;2022-11-15T04:59:37;27.30;;;13.77;;
5418;SDS011;2732;52.092;11.556;2022-11-15T05:04:38;26.00;;;13.33;;
5418;SDS011;2732;52.092;11.556;2022-11-15T05:09:39;22.83;;;12.97;;
5418;SDS011;2732;52.092;11.556;2022-11-15T05:14:39;21.20;;;11.53;;
5418;SDS011;2732;52.092;11.556;2022-11-15T05:19:40;20.60;;;12.57;;
5418;SDS011;2732;52.092;11.556;2022-11-15T05:24:41;20.03;;;11.60;;
5418;SDS011;2732;52.092;11.556;2022-11-15T05:29:41;19.43;;;11.90;;
5418;SDS011;2732;52.092;11.556;2022-11-15T05:34:42;22.93;;;12.13;;
5418;SDS011;2732;52.092;11.556;2022-11-15T05:39:43;20.30;;;12.30;;
5418;SDS011;2732;52.092;11.556;2022-11-15T05:44:45;19.40;;;12.23;;
5418;SDS011;2732;52.092;11.556;2022-11-15T05:49:49;21.37;;;12.77;;
5418;SDS011;2732;52.092;11.556;2022-11-15T05:54:51;22.17;;;12.83;;
5418;SDS011;2732;52.092;11.556;2022-11-15T05:59:53;22.23;;;12.03;;
5418;SDS011;2732;52.092;11.556;2022-11-15T06:04:54;16.23;;;9.33;;
5418;SDS011;2732;52.092;11.556;2022-11-15T06:09:55;20.47;;;11.97;;
5418;SDS011;2732;52.092;11.556;2022-11-15T06:14:55;22.70;;;11.30;;
5418;SDS011;2732;52.092;11.556;2022-11-15T06:19:56;20.73;;;10.80;;
5418;SDS011;2732;52.092;11.556;2022-11-15T06:24:56;19.97;;;10.60;;
5418;SDS011;2732;52.092;11.556;2022-11-15T06:29:57;15.83;;;10.10;;
5418;SDS011;2732;52.092;11.556;2022-11-15T06:34:58;19.23;;;10.60;;
5418;SDS011;2732;52.092;11.556;2022-11-15T06:39:58;20.30;;;11.90;;
5418;SDS011;2732;52.092;11.556;2022-11-15T06:44:59;21.33;;;11.00;;
5418;SDS011;2732;52.092;11.556;2022-11-15T06:50:00;15.00;;;8.80;;
5418;SDS011;2732;52.092;11.556;2022-11-15T06:55:02;21.50;;;11.20;;
5418;SDS011;2732;52.092;11.556;2022-11-15T07:00:04;20.00;;;10.60;;
5418;SDS011;2732;52.092;11.556;2022-11-15T07:05:05;17.23;;;11.20;;
5418;SDS011;2732;52.092;11.556;2022-11-15T07:10:07;21.70;;;10.90;;
5418;SDS011;2732;52.092;11.556;2022-11-15T07:15:08;18.73;;;10.90;;
5418;SDS011;2732;52.092;11.556;2022-11-15T07:20:10;18.50;;;10.97;;
5418;SDS011;2732;52.092;11.556;2022-11-15T07:25:11;22.80;;;11.80;;
5418;SDS011;2732;52.092;11.556;2022-11-15T07:30:12;20.27;;;12.60;;
5418;SDS011;2732;52.092;11.556;2022-11-15T07:35:13;22.87;;;12.27;;
5418;SDS011;2732;52.092;11.556;2022-11-15T07:40:14;20.17;;;11.40;;
5418;SDS011;2732;52.092;11.556;2022-11-15T07:45:14;22.00;;;12.20;;
5418;SDS011;2732;52.092;11.556;2022-11-15T07:50:16;23.33;;;12.73;;
5418;SDS011;2732;52.092;11.556;2022-11-15T07:55:17;23.07;;;12.37;;
5418;SDS011;2732;52.092;11.556;2022-11-15T08:00:18;21.80;;;12.53;;
5418;SDS011;2732;52.092;11.556;2022-11-15T08:05:19;20.43;;;11.13;;
5418;SDS011;2732;52.092;11.556;2022-11-15T08:10:19;20.70;;;13.40;;
5418;SDS011;2732;52.092;11.556;2022-11-15T08:15:21;23.27;;;11.60;;
5418;SDS011;2732;52.092;11.556;2022-11-15T08:20:22;22.40;;;12.83;;
5418;SDS011;2732;52.092;11.556;2022-11-15T08:25:23;27.03;;;14.30;;
5418;SDS011;2732;52.092;11.556;2022-11-15T08:30:29;21.10;;;13.33;;
5418;SDS011;2732;52.092;11.556;2022-11-15T08:35:30;21.80;;;12.07;;
5418;SDS011;2732;52.092;11.556;2022-11-15T08:40:31;21.03;;;12.77;;
5418;SDS011;2732;52.092;11.556;2022-11-15T08:45:32;23.13;;;11.47;;
5418;SDS011;2732;52.092;11.556;2022-11-15T08:50:34;20.20;;;11.57;;
5418;SDS011;2732;52.092;11.556;2022-11-15T08:55:36;23.00;;;12.70;;
5418;SDS011;2732;52.092;11.556;2022-11-15T09:00:37;24.57;;;12.90;;
5418;SDS011;2732;52.092;11.556;2022-11-15T09:05:38;23.70;;;14.17;;
5418;SDS011;2732;52.092;11.556;2022-11-15T09:10:39;22.20;;;12.30;;
5418;SDS011;2732;52.092;11.556;2022-11-15T09:15:39;19.10;;;12.43;;
5418;SDS011;2732;52.092;11.556;2022-11-15T09:20:40;28.27;;;13.97;;
5418;SDS011;2732;52.092;11.556;2022-11-15T09:25:41;21.77;;;13.03;;
5418;SDS011;2732;52.092;11.556;2022-11-15T09:30:41;19.97;;;13.87;;
5418;SDS011;2732;52.092;11.556;2022-11-15T09:35:42;29.10;;;14.67;;
5418;SDS011;2732;52.092;11.556;2022-11-15T09:40:43;26.50;;;14.30;;
5418;SDS011;2732;52.092;11.556;2022-11-15T09:51:03;22.30;;;14.47;;
5418;SDS011;2732;52.092;11.556;2022-11-15T09:56:14;23.10;;;13.93;;
5418;SDS011;2732;52.092;11.556;2022-11-15T10:01:33;24.13;;;13.90;;
5418;SDS011;2732;52.092;11.556;2022-11-15T10:06:48;24.80;;;13.37;;
5418;SDS011;2732;52.092;11.556;2022-11-15T10:11:55;32.53;;;14.77;;
5418;SDS011;2732;52.092;11.556;2022-11-15T10:22:25;20.83;;;13.50;;
5418;SDS011;2732;52.092;11.556;2022-11-15T10:27:32;15.17;;;9.77;;
5418;SDS011;2732;52.092;11.556;2022-11-15T10:32:33;16.53;;;8.50;;
5418;SDS011;2732;52.092;11.556;2022-11-15T10:37:36;14.23;;;7.87;;
5418;SDS011;2732;52.092;11.556;2022-11-15T10:42:36;14.23;;;7.93;;
5418;SDS011;2732;52.092;11.556;2022-11-15T10:47:38;15.37;;;9.10;;
5418;SDS011;2732;52.092;11.556;2022-11-15T10:52:43;11.83;;;7.93;;
5418;SDS011;2732;52.092;11.556;2022-11-15T10:57:50;10.10;;;7.37;;
5418;SDS011;2732;52.092;11.556;2022-11-15T11:08:03;8.17;;;6.73;;
5418;SDS011;2732;52.092;11.556;2022-11-15T11:13:34;13.33;;;8.70;;
5418;SDS011;2732;52.092;11.556;2022-11-15T11:18:38;10.13;;;7.87;;
5418;SDS011;2732;52.092;11.556;2022-11-15T11:24:05;15.30;;;8.17;;
5418;SDS011;2732;52.092;11.556;2022-11-15T11:51:23;11.77;;;8.30;;
5418;SDS011;2732;52.092;11.556;2022-11-15T11:56:31;15.87;;;9.10;;
5418;SDS011;2732;52.092;11.556;2022-11-15T12:01:36;12.30;;;7.33;;
5418;SDS011;2732;52.092;11.556;2022-11-15T12:06:57;15.37;;;8.10;;
5418;SDS011;2732;52.092;11.556;2022-11-15T12:12:25;13.57;;;6.73;;
5418;SDS011;2732;52.092;11.556;2022-11-15T12:17:32;15.93;;;7.90;;
5418;SDS011;2732;52.092;11.556;2022-11-15T12:22:38;12.17;;;7.53;;
5418;SDS011;2732;52.092;11.556;2022-11-15T12:28:15;13.40;;;7.27;;
5418;SDS011;2732;52.092;11.556;2022-11-15T12:33:57;12.00;;;6.93;;
5418;SDS011;2732;52.092;11.556;2022-11-15T12:38:59;8.93;;;7.43;;
5418;SDS011;2732;52.092;11.556;2022-11-15T12:44:03;11.43;;;6.70;;
5418;SDS011;2732;52.092;11.556;2022-11-15T12:59:49;8.80;;;6.43;;
5418;SDS011;2732;52.092;11.556;2022-11-15T13:16:00;10.30;;;6.37;;
5418;SDS011;2732;52.092;11.556;2022-11-15T13:20:59;13.83;;;6.30;;
5418;SDS011;2732;52.092;11.556;2022-11-15T13:26:15;10.80;;;6.77;;
5418;SDS011;2732;52.092;11.556;2022-11-15T13:31:27;10.47;;;6.40;;
5418;SDS011;2732;52.092;11.556;2022-11-15T13:36:36;12.40;;;7.10;;
5418;SDS011;2732;52.092;11.556;2022-11-15T13:41:44;8.00;;;7.00;;
5418;SDS011;2732;52.092;11.556;2022-11-15T13:46:48;11.67;;;6.67;;
5418;SDS011;2732;52.092;11.556;2022-11-15T13:51:50;9.27;;;6.33;;
5418;SDS011;2732;52.092;11.556;2022-11-15T13:56:55;7.13;;;5.47;;
5418;SDS011;2732;52.092;11.556;2022-11-15T14:02:12;12.13;;;6.03;;
5418;SDS011;2732;52.092;11.556;2022-11-15T14:07:35;7.77;;;5.60;;
5418;SDS011;2732;52.092;11.556;2022-11-15T14:12:36;9.77;;;5.50;;
5418;SDS011;2732;52.092;11.556;2022-11-15T14:17:37;15.47;;;6.10;;
5418;SDS011;2732;52.092;11.556;2022-11-15T14:22:40;6.57;;;5.00;;
5418;SDS011;2732;52.092;11.556;2022-11-15T14:33:29;8.40;;;6.00;;
5418;SDS011;2732;52.092;11.556;2022-11-15T14:38:32;10.93;;;5.33;;
5418;SDS011;2732;52.092;11.556;2022-11-15T14:43:34;9.20;;;5.83;;
5418;SDS011;2732;52.092;11.556;2022-11-15T14:48:35;11.60;;;5.60;;
5418;SDS011;2732;52.092;11.556;2022-11-15T14:53:36;7.40;;;5.63;;
5418;SDS011;2732;52.092;11.556;2022-11-15T14:58:37;8.87;;;6.07;;
5418;SDS011;2732;52.092;11.556;2022-11-15T15:03:38;9.07;;;7.53;;
5418;SDS011;2732;52.092;11.556;2022-11-15T15:08:39;8.80;;;6.20;;
5418;SDS011;2732;52.092;11.556;2022-11-15T15:13:40;6.80;;;5.30;;
5418;SDS011;2732;52.092;11.556;2022-11-15T15:18:41;7.10;;;4.70;;
5418;SDS011;2732;52.092;11.556;2022-11-15T15:23:42;5.20;;;4.70;;
5418;SDS011;2732;52.092;11.556;2022-11-15T15:28:43;8.77;;;5.80;;
5418;SDS011;2732;52.092;11.556;2022-11-15T15:33:43;6.87;;;5.50;;
5418;SDS011;2732;52.092;11.556;2022-11-15T15:38:44;8.93;;;5.60;;
5418;SDS011;2732;52.092;11.556;2022-11-15T15:43:46;6.33;;;5.30;;
5418;SDS011;2732;52.092;11.556;2022-11-15T15:48:47;11.53;;;6.33;;
5418;SDS011;2732;52.092;11.556;2022-11-15T15:53:48;12.20;;;8.00;;
5418;SDS011;2732;52.092;11.556;2022-11-15T15:58:50;13.30;;;7.33;;
5418;SDS011;2732;52.092;11.556;2022-11-15T16:03:52;11.90;;;7.30;;
5418;SDS011;2732;52.092;11.556;2022-11-15T16:08:53;11.27;;;7.67;;
5418;SDS011;2732;52.092;11.556;2022-11-15T16:13:53;13.00;;;7.97;;
5418;SDS011;2732;52.092;11.556;2022-11-15T16:18:54;11.37;;;7.50;;
5418;SDS011;2732;52.092;11.556;2022-11-15T16:23:55;9.13;;;7.40;;
5418;SDS011;2732;52.092;11.556;2022-11-15T16:28:55;16.10;;;7.20;;
5418;SDS011;2732;52.092;11.556;2022-11-15T16:33:57;11.17;;;6.17;;
5418;SDS011;2732;52.092;11.556;2022-11-15T16:38:58;10.07;;;6.67;;
5418;SDS011;2732;52.092;11.556;2022-11-15T16:44:00;11.43;;;6.90;;
5418;SDS011;2732;52.092;11.556;2022-11-15T16:49:00;10.77;;;6.30;;
5418;SDS011;2732;52.092;11.556;2022-11-15T16:54:01;9.07;;;7.43;;
5418;SDS011;2732;52.092;11.556;2022-11-15T16:59:01;13.07;;;8.90;;
5418;SDS011;2732;52.092;11.556;2022-11-15T17:04:02;13.90;;;7.97;;
5418;SDS011;2732;52.092;11.556;2022-11-15T17:09:12;14.07;;;9.73;;
5418;SDS011;2732;52.092;11.556;2022-11-15T17:14:15;14.70;;;10.50;;
5418;SDS011;2732;52.092;11.556;2022-11-15T17:19:18;11.17;;;8.50;;
5418;SDS011;2732;52.092;11.556;2022-11-15T17:24:20;16.03;;;10.57;;
5418;SDS011;2732;52.092;11.556;2022-11-15T17:29:21;17.33;;;9.87;;
5418;SDS011;2732;52.092;11.556;2022-11-15T17:34:22;17.10;;;9.83;;
5418;SDS011;2732;52.092;11.556;2022-11-15T17:39:22;15.30;;;9.00;;
5418;SDS011;2732;52.092;11.556;2022-11-15T17:44:23;14.23;;;9.00;;
5418;SDS011;2732;52.092;11.556;2022-11-15T17:49:24;15.90;;;10.37;;
5418;SDS011;2732;52.092;11.556;2022-11-15T17:54:25;12.30;;;9.53;;
5418;SDS011;2732;52.092;11.556;2022-11-15T17:59:26;25.80;;;12.57;;
5418;SDS011;2732;52.092;11.556;2022-11-15T18:04:26;20.37;;;13.00;;
5418;SDS011;2732;52.092;11.556;2022-11-15T18:09:27;18.40;;;10.90;;
5418;SDS011;2732;52.092;11.556;2022-11-15T18:14:28;13.07;;;9.63;;
5418;SDS011;2732;52.092;11.556;2022-11-15T18:19:29;12.37;;;9.40;;
5418;SDS011;2732;52.092;11.556;2022-11-15T18:24:30;13.50;;;8.10;;
5418;SDS011;2732;52.092;11.556;2022-11-15T18:29:43;11.40;;;8.07;;
5418;SDS011;2732;52.092;11.556;2022-11-15T18:34:44;11.43;;;9.00;;
5418;SDS011;2732;52.092;11.556;2022-11-15T18:39:45;12.60;;;8.83;;
5418;SDS011;2732;52.092;11.556;2022-11-15T18:44:46;14.33;;;9.07;;
5418;SDS011;2732;52.092;11.556;2022-11-15T18:49:47;21.57;;;10.43;;
5418;SDS011;2732;52.092;11.556;2022-11-15T18:54:47;16.33;;;9.87;;
5418;SDS011;2732;52.092;11.556;2022-11-15T18:59:48;16.10;;;10.27;;
5418;SDS011;2732;52.092;11.556;2022-11-15T19:04:49;14.93;;;10.43;;
5418;SDS011;2732;52.092;11.556;2022-11-15T19:09:49;12.40;;;8.30;;
5418;SDS011;2732;52.092;11.556;2022-11-15T19:14:50;21.90;;;9.67;;
5418;SDS011;2732;52.092;11.556;2022-11-15T19:19:51;14.33;;;9.60;;
5418;SDS011;2732;52.092;11.556;2022-11-15T19:24:51;14.50;;;9.50;;
5418;SDS011;2732;52.092;11.556;2022-11-15T19:29:52;13.63;;;9.90;;
5418;SDS011;2732;52.092;11.556;2022-11-15T19:34:52;15.57;;;10.60;;
5418;SDS011;2732;52.092;11.556;2022-11-15T19:39:53;15.23;;;10.57;;
5418;SDS011;2732;52.092;11.556;2022-11-15T19:44:54;18.70;;;10.67;;
5418;SDS011;2732;52.092;11.556;2022-11-15T19:49:54;21.37;;;12.70;;
5418;SDS011;2732;52.092;11.556;2022-11-15T19:54:55;18.00;;;11.70;;
5418;SDS011;2732;52.092;11.556;2022-11-15T19:59:56;19.87;;;12.90;;
5418;SDS011;2732;52.092;11.556;2022-11-15T20:04:56;20.70;;;12.30;;
5418;SDS011;2732;52.092;11.556;2022-11-15T20:09:57;21.47;;;13.10;;
5418;SDS011;2732;52.092;11.556;2022-11-15T20:14:59;30.47;;;13.30;;
5418;SDS011;2732;52.092;11.556;2022-11-15T20:19:59;23.33;;;14.33;;
5418;SDS011;2732;52.092;11.556;2022-11-15T20:25:00;21.53;;;13.83;;
5418;SDS011;2732;52.092;11.556;2022-11-15T20:30:01;23.57;;;14.27;;
5418;SDS011;2732;52.092;11.556;2022-11-15T20:35:03;23.37;;;15.03;;
5418;SDS011;2732;52.092;11.556;2022-11-15T20:40:04;25.80;;;16.00;;
5418;SDS011;2732;52.092;11.556;2022-11-15T20:45:06;25.40;;;15.00;;
5418;SDS011;2732;52.092;11.556;2022-11-15T20:50:07;28.57;;;14.73;;
5418;SDS011;2732;52.092;11.556;2022-11-15T20:55:08;21.03;;;14.37;;
5418;SDS011;2732;52.092;11.556;2022-11-15T21:00:09;27.63;;;15.80;;
5418;SDS011;2732;52.092;11.556;2022-11-15T21:05:10;25.23;;;15.77;;
5418;SDS011;2732;52.092;11.556;2022-11-15T21:10:11;28.93;;;16.77;;
5418;SDS011;2732;52.092;11.556;2022-11-15T21:15:31;32.57;;;16.17;;
5418;SDS011;2732;52.092;11.556;2022-11-15T21:20:32;28.60;;;15.77;;
5418;SDS011;2732;52.092;11.556;2022-11-15T21:25:33;31.03;;;17.17;;
5418;SDS011;2732;52.092;11.556;2022-11-15T21:30:34;29.07;;;17.63;;
5418;SDS011;2732;52.092;11.556;2022-11-15T21:35:35;27.20;;;16.77;;
5418;SDS011;2732;52.092;11.556;2022-11-15T21:40:35;33.17;;;17.37;;
5418;SDS011;2732;52.092;11.556;2022-11-15T21:45:37;26.10;;;16.77;;
5418;SDS011;2732;52.092;11.556;2022-11-15T21:50:38;30.90;;;16.90;;
5418;SDS011;2732;52.092;11.556;2022-11-15T21:55:38;31.27;;;17.70;;
5418;SDS011;2732;52.092;11.556;2022-11-15T22:00:39;29.30;;;17.50;;
5418;SDS011;2732;52.092;11.556;2022-11-15T22:05:58;26.90;;;17.73;;
5418;SDS011;2732;52.092;11.556;2022-11-15T22:10:59;29.20;;;18.27;;
5418;SDS011;2732;52.092;11.556;2022-11-15T22:16:00;26.53;;;17.37;;
5418;SDS011;2732;52.092;11.556;2022-11-15T22:21:08;24.20;;;15.90;;
5418;SDS011;2732;52.092;11.556;2022-11-15T22:26:15;26.97;;;17.20;;
5418;SDS011;2732;52.092;11.556;2022-11-15T22:31:17;33.93;;;18.70;;
5418;SDS011;2732;52.092;11.556;2022-11-15T22:36:18;34.80;;;19.17;;
5418;SDS011;2732;52.092;11.556;2022-11-15T22:41:19;32.67;;;18.40;;
5418;SDS011;2732;52.092;11.556;2022-11-15T22:46:19;32.67;;;18.47;;
5418;SDS011;2732;52.092;11.556;2022-11-15T22:51:20;32.83;;;18.40;;
5418;SDS011;2732;52.092;11.556;2022-11-15T22:56:21;29.57;;;17.20;;
5418;SDS011;2732;52.092;11.556;2022-11-15T23:01:22;31.93;;;18.70;;
5418;SDS011;2732;52.092;11.556;2022-11-15T23:06:22;32.53;;;18.93;;
5418;SDS011;2732;52.092;11.556;2022-11-15T23:11:23;31.03;;;17.10;;
5418;SDS011;2732;52.092;11.556;2022-11-15T23:16:42;25.80;;;16.17;;
5418;SDS011;2732;52.092;11.556;2022-11-15T23:21:44;31.40;;;17.33;;
5418;SDS011;2732;52.092;11.556;2022-11-15T23:27:05;31.20;;;16.40;;
5418;SDS011;2732;52.092;11.556;2022-11-15T23:32:07;30.67;;;16.57;;
5418;SDS011;2732;52.092;11.556;2022-11-15T23:37:26;32.80;;;18.43;;
5418;SDS011;2732;52.092;11.556;2022-11-15T23:42:27;28.67;;;17.97;;
5418;SDS011;2732;52.092;11.556;2022-11-15T23:47:27;26.37;;;16.50;;
5418;SDS011;2732;52.092;11.556;2022-11-15T23:52:28;28.27;;;17.07;;
5418;SDS011;2732;52.092;11.556;2022-11-15T23:57:29;32.77;;;18.30;;
